• Join FlightAware (Why Join?)
  • Login
  • US Flag GB Flag 
20:20 EDT


 

Airport Tracker/Info


-or-


 

Live Flight TrackerFlight Track Log ✈ N867DS ✈ 14-Aug-2013 ✈ KAPF - F45

Flight Track Log - Related Links

Times and Time Zones

All times are in EDT time to prevent confusion due to time zone crossing. See the N867DS flight status page for this flight to view local times or setup timezone preferences in your user account.

Time Position Orientation Groundspeed Altitude Reporting Facility
EDT Latitude Longitude Course Direction KTS MPH feet Rate Location/Type
12:12 26.1747 -81.5997 353° North 141 162 3,000  Level Miami Center
12:13 26.2611 -81.5359 98° East  Level Estimated
12:13 26.1947 -81.5636 58° Northeast 148 170 3,100  Level Miami Center
12:14 26.2293 -81.5086 142° Southeast  Level FlightAware Approximate
12:14 26.2167 -81.5272 56° Northeast 143 165 3,000  Level Miami Center
12:15 26.1975 -81.4813 142° Southeast  Level FlightAware Approximate
12:15 26.2386 -81.4933 54° Northeast 143 165 3,100  Level Miami Center
12:16 26.2177 -81.4426 106° East  Level Estimated
12:16 26.2586 -81.4572 58° Northeast 143 165 3,000  Level Miami Center
12:17 26.1856 -81.4157 143° Southeast  Level FlightAware Approximate
12:17 26.2808 -81.4164 59° Northeast 133 153 3,100  Level Miami Center
12:18 26.2068 -81.3778 353° North  Level Estimated
12:18 26.3028 -81.3825 54° Northeast 138 159 3,000  Level Miami Center
12:19 26.3167 -81.3414 69° East 138 159 3,100  Climbing Miami Center
12:20 26.3261 -81.3022 75° East 127 146 3,000  Descending Miami Center
12:21 26.3356 -81.2633 75° East 127 146 3,100 -60 Climbing Miami Center
12:22 26.3494 -81.2219 69° East 127 146 2,900 -60 Descending Miami Center
12:23 26.3672 -81.1856 61° Northeast 127 146 3,000  Climbing Miami Center
12:24 26.3850 -81.1469 63° Northeast 132 152 3,000  Level Miami Center
12:25 26.4008 -81.1081 66° East 132 152 3,000  Level Miami Center
12:26 26.4186 -81.0714 62° Northeast 132 152 3,100 -60 Climbing Miami Center
12:27 26.4300 -81.0372 70° East 132 152 2,900  Descending Miami Center
12:28 26.4522 -80.9939 60° Northeast 132 152 3,100  Climbing Miami Center
12:29 26.4678 -80.9572 65° Northeast 134 154 3,000  Descending Miami Center
12:30 26.4856 -80.9161 64° Northeast 134 154 3,100  Climbing Miami Center
12:31 26.5053 -80.8819 57° Northeast 134 154 3,100 -60 Level Miami Center
12:32 26.5314 -80.8481 49° Northeast 142 163 3,000  Descending Miami Center
12:33 26.5492 -80.8114 62° Northeast 142 163 3,100  Climbing Miami Center
12:35 26.5797 -80.7614 56° Northeast 142 163 3,000  Descending Miami Center
12:36 26.5931 -80.7294 65° Northeast 135 155 3,100  Climbing Miami Center
12:37 26.6150 -80.6883 59° Northeast 135 155 3,100  Level Miami Center
12:38 26.6306 -80.6492 66° East 135 155 3,100 -60 Level Miami Center
12:39 26.6506 -80.6081 61° Northeast 135 155 3,000  Descending Miami Center
12:40 26.6681 -80.5739 60° Northeast 135 155 3,100  Climbing Miami Center
12:41 26.6878 -80.5350 60° Northeast 135 155 3,000 -60 Descending Miami Center
12:42 26.7075 -80.5006 57° Northeast 141 162 3,000  Level Miami Center
12:43 26.7231 -80.4575 68° East  Level FlightAware Approximate
12:50 26.8333 -80.2167 61° Northeast  Level FlightAware Approximate
12:51 26.8459 -80.2223 61° Northeast  Level Estimated
12:52 26.8459 -80.2223 61° Northeast  Level Estimated
12:53 26.8459 -80.2223 61° Northeast  Level Estimated
12:54 26.8459 -80.2223 61° Northeast  Level Estimated
12:55 26.8459 -80.2223 61° Northeast  Level Estimated
12:56 26.8459 -80.2223 61° Northeast  Level Estimated
12:57 26.8459 -80.2223 61° Northeast  Level Estimated
12:58 26.8459 -80.2223 61° Northeast  Level Estimated
12:59 26.8459 -80.2223 61° Northeast  Level Estimated
13:00 26.8459 -80.2223 61° Northeast  Level Estimated
13:01 26.8459 -80.2223 61° Northeast  Level Estimated
13:02 26.8459 -80.2223 61° Northeast  Level Estimated
13:03 26.8459 -80.2223 61° Northeast  Level Estimated
13:04 26.8459 -80.2223 61° Northeast  Level Estimated
13:05 26.8459 -80.2223 61° Northeast  Level Estimated
13:06 26.8459 -80.2223 61° Northeast  Level Estimated